sensor_id;sensor_type;location;lat;lon;timestamp;temperature;humidity
17639;DHT22;8938;53.546;9.954;2023-04-03T00:01:28;6.60;99.20
17639;DHT22;8938;53.546;9.954;2023-04-03T00:03:53;6.60;99.10
17639;DHT22;8938;53.546;9.954;2023-04-03T00:06:20;6.60;99.20
17639;DHT22;8938;53.546;9.954;2023-04-03T00:08:48;6.60;99.20
17639;DHT22;8938;53.546;9.954;2023-04-03T00:11:13;6.60;99.50
17639;DHT22;8938;53.546;9.954;2023-04-03T00:13:40;6.60;99.20
17639;DHT22;8938;53.546;9.954;2023-04-03T00:16:07;6.60;99.20
17639;DHT22;8938;53.546;9.954;2023-04-03T00:18:33;6.70;99.40
17639;DHT22;8938;53.546;9.954;2023-04-03T00:20:58;6.70;99.10
17639;DHT22;8938;53.546;9.954;2023-04-03T00:23:25;6.70;99.10
17639;DHT22;8938;53.546;9.954;2023-04-03T00:25:51;6.70;99.10
17639;DHT22;8938;53.546;9.954;2023-04-03T00:28:16;6.70;99.10
17639;DHT22;8938;53.546;9.954;2023-04-03T00:30:42;6.80;99.00
17639;DHT22;8938;53.546;9.954;2023-04-03T00:33:13;6.80;99.10
17639;DHT22;8938;53.546;9.954;2023-04-03T00:35:39;6.80;99.10
17639;DHT22;8938;53.546;9.954;2023-04-03T00:38:05;6.80;99.10
17639;DHT22;8938;53.546;9.954;2023-04-03T00:40:35;6.80;99.10
17639;DHT22;8938;53.546;9.954;2023-04-03T00:43:00;6.70;99.10
17639;DHT22;8938;53.546;9.954;2023-04-03T00:45:30;6.80;99.10
17639;DHT22;8938;53.546;9.954;2023-04-03T00:47:56;6.70;99.10
17639;DHT22;8938;53.546;9.954;2023-04-03T00:50:22;6.70;99.10
17639;DHT22;8938;53.546;9.954;2023-04-03T00:52:48;6.70;99.20
17639;DHT22;8938;53.546;9.954;2023-04-03T00:55:15;6.70;99.20
17639;DHT22;8938;53.546;9.954;2023-04-03T00:57:41;6.70;99.20
17639;DHT22;8938;53.546;9.954;2023-04-03T01:00:11;6.70;99.30
17639;DHT22;8938;53.546;9.954;2023-04-03T01:02:37;6.70;99.10
17639;DHT22;8938;53.546;9.954;2023-04-03T01:05:04;6.70;99.10
17639;DHT22;8938;53.546;9.954;2023-04-03T01:07:30;6.70;99.20
17639;DHT22;8938;53.546;9.954;2023-04-03T01:10:02;6.70;99.10
17639;DHT22;8938;53.546;9.954;2023-04-03T01:12:34;6.70;99.10
17639;DHT22;8938;53.546;9.954;2023-04-03T01:15:05;6.70;99.20
17639;DHT22;8938;53.546;9.954;2023-04-03T01:28:09;6.60;99.20
17639;DHT22;8938;53.546;9.954;2023-04-03T01:30:45;6.60;99.30
17639;DHT22;8938;53.546;9.954;2023-04-03T01:33:12;6.60;99.30
17639;DHT22;8938;53.546;9.954;2023-04-03T01:35:38;6.70;99.20
17639;DHT22;8938;53.546;9.954;2023-04-03T01:38:03;6.70;99.20
17639;DHT22;8938;53.546;9.954;2023-04-03T01:40:29;6.80;99.10
17639;DHT22;8938;53.546;9.954;2023-04-03T01:42:55;6.80;99.00
17639;DHT22;8938;53.546;9.954;2023-04-03T01:45:20;6.80;99.00
17639;DHT22;8938;53.546;9.954;2023-04-03T01:47:46;6.80;99.00
17639;DHT22;8938;53.546;9.954;2023-04-03T01:50:11;6.90;99.00
17639;DHT22;8938;53.546;9.954;2023-04-03T01:52:37;6.90;99.00
17639;DHT22;8938;53.546;9.954;2023-04-03T01:55:03;6.90;98.90
17639;DHT22;8938;53.546;9.954;2023-04-03T01:57:28;7.00;98.90
17639;DHT22;8938;53.546;9.954;2023-04-03T01:59:54;7.00;98.80
17639;DHT22;8938;53.546;9.954;2023-04-03T02:02:19;7.00;98.70
17639;DHT22;8938;53.546;9.954;2023-04-03T02:04:45;7.00;98.80
17639;DHT22;8938;53.546;9.954;2023-04-03T02:07:11;7.10;98.70
17639;DHT22;8938;53.546;9.954;2023-04-03T02:09:37;7.10;98.70
17639;DHT22;8938;53.546;9.954;2023-04-03T02:12:02;7.10;98.60
17639;DHT22;8938;53.546;9.954;2023-04-03T02:14:28;7.10;98.60
17639;DHT22;8938;53.546;9.954;2023-04-03T02:16:54;7.10;98.60
17639;DHT22;8938;53.546;9.954;2023-04-03T02:19:19;7.00;98.50
17639;DHT22;8938;53.546;9.954;2023-04-03T02:21:45;6.90;98.50
17639;DHT22;8938;53.546;9.954;2023-04-03T02:24:10;6.90;98.60
17639;DHT22;8938;53.546;9.954;2023-04-03T02:26:36;6.80;98.70
17639;DHT22;8938;53.546;9.954;2023-04-03T02:29:02;6.70;98.70
17639;DHT22;8938;53.546;9.954;2023-04-03T02:31:28;6.70;98.70
17639;DHT22;8938;53.546;9.954;2023-04-03T02:33:53;6.70;98.70
17639;DHT22;8938;53.546;9.954;2023-04-03T02:36:19;6.70;98.70
17639;DHT22;8938;53.546;9.954;2023-04-03T02:38:44;6.70;98.70
17639;DHT22;8938;53.546;9.954;2023-04-03T02:41:11;6.70;98.70
17639;DHT22;8938;53.546;9.954;2023-04-03T02:43:38;6.70;98.80
17639;DHT22;8938;53.546;9.954;2023-04-03T02:46:04;6.60;98.70
17639;DHT22;8938;53.546;9.954;2023-04-03T02:48:29;6.60;99.00
17639;DHT22;8938;53.546;9.954;2023-04-03T02:50:55;6.60;98.70
17639;DHT22;8938;53.546;9.954;2023-04-03T02:53:29;6.50;98.70
17639;DHT22;8938;53.546;9.954;2023-04-03T02:55:54;6.50;98.80
17639;DHT22;8938;53.546;9.954;2023-04-03T02:58:20;6.40;98.80
17639;DHT22;8938;53.546;9.954;2023-04-03T03:00:45;6.40;98.80
17639;DHT22;8938;53.546;9.954;2023-04-03T03:03:11;6.40;98.80
17639;DHT22;8938;53.546;9.954;2023-04-03T03:05:36;6.30;98.90
17639;DHT22;8938;53.546;9.954;2023-04-03T03:08:02;6.30;98.90
17639;DHT22;8938;53.546;9.954;2023-04-03T03:10:27;6.30;98.90
17639;DHT22;8938;53.546;9.954;2023-04-03T03:12:53;6.30;98.90
17639;DHT22;8938;53.546;9.954;2023-04-03T03:15:18;6.30;99.00
17639;DHT22;8938;53.546;9.954;2023-04-03T03:17:44;6.20;99.00
17639;DHT22;8938;53.546;9.954;2023-04-03T03:20:11;6.20;99.00
17639;DHT22;8938;53.546;9.954;2023-04-03T03:22:37;6.20;99.10
17639;DHT22;8938;53.546;9.954;2023-04-03T03:25:03;6.20;99.10
17639;DHT22;8938;53.546;9.954;2023-04-03T03:27:28;6.10;99.10
17639;DHT22;8938;53.546;9.954;2023-04-03T03:29:57;6.20;99.20
17639;DHT22;8938;53.546;9.954;2023-04-03T03:32:26;6.20;99.20
17639;DHT22;8938;53.546;9.954;2023-04-03T03:34:52;6.30;99.20
17639;DHT22;8938;53.546;9.954;2023-04-03T03:37:17;6.30;99.20
17639;DHT22;8938;53.546;9.954;2023-04-03T03:39:43;6.30;99.10
17639;DHT22;8938;53.546;9.954;2023-04-03T03:42:08;6.30;99.10
17639;DHT22;8938;53.546;9.954;2023-04-03T03:44:34;6.30;99.20
17639;DHT22;8938;53.546;9.954;2023-04-03T03:46:59;6.20;99.20
17639;DHT22;8938;53.546;9.954;2023-04-03T03:49:25;6.20;99.20
17639;DHT22;8938;53.546;9.954;2023-04-03T03:51:50;6.20;99.20
17639;DHT22;8938;53.546;9.954;2023-04-03T03:54:17;6.10;99.30
17639;DHT22;8938;53.546;9.954;2023-04-03T03:56:42;6.10;99.30
17639;DHT22;8938;53.546;9.954;2023-04-03T03:59:08;6.10;99.40
17639;DHT22;8938;53.546;9.954;2023-04-03T04:01:34;6.20;99.40
17639;DHT22;8938;53.546;9.954;2023-04-03T04:03:59;6.20;99.30
17639;DHT22;8938;53.546;9.954;2023-04-03T04:06:25;6.10;99.30
17639;DHT22;8938;53.546;9.954;2023-04-03T04:08:51;6.20;99.40
17639;DHT22;8938;53.546;9.954;2023-04-03T04:11:16;6.20;99.30
17639;DHT22;8938;53.546;9.954;2023-04-03T04:13:42;6.10;99.20
17639;DHT22;8938;53.546;9.954;2023-04-03T04:16:08;6.20;99.30
17639;DHT22;8938;53.546;9.954;2023-04-03T04:18:33;6.10;99.30
17639;DHT22;8938;53.546;9.954;2023-04-03T04:20:59;6.20;99.30
17639;DHT22;8938;53.546;9.954;2023-04-03T04:23:25;6.20;99.30
17639;DHT22;8938;53.546;9.954;2023-04-03T04:25:50;6.10;99.30
17639;DHT22;8938;53.546;9.954;2023-04-03T04:28:16;6.10;99.30
17639;DHT22;8938;53.546;9.954;2023-04-03T04:30:41;6.10;99.30
17639;DHT22;8938;53.546;9.954;2023-04-03T04:33:07;6.20;99.30
17639;DHT22;8938;53.546;9.954;2023-04-03T04:35:33;6.20;99.40
17639;DHT22;8938;53.546;9.954;2023-04-03T04:37:59;6.20;99.40
17639;DHT22;8938;53.546;9.954;2023-04-03T04:40:25;6.20;99.30
17639;DHT22;8938;53.546;9.954;2023-04-03T04:42:51;6.10;99.30
17639;DHT22;8938;53.546;9.954;2023-04-03T04:45:16;6.10;99.30
17639;DHT22;8938;53.546;9.954;2023-04-03T04:47:42;6.00;99.30
17639;DHT22;8938;53.546;9.954;2023-04-03T04:50:08;6.00;99.40
17639;DHT22;8938;53.546;9.954;2023-04-03T04:52:33;6.00;99.50
17639;DHT22;8938;53.546;9.954;2023-04-03T04:54:59;6.00;99.50
17639;DHT22;8938;53.546;9.954;2023-04-03T04:57:25;6.00;99.50
17639;DHT22;8938;53.546;9.954;2023-04-03T04:59:51;6.00;99.50
17639;DHT22;8938;53.546;9.954;2023-04-03T05:02:16;6.00;99.50
17639;DHT22;8938;53.546;9.954;2023-04-03T05:04:42;6.10;99.50
17639;DHT22;8938;53.546;9.954;2023-04-03T05:07:07;6.10;99.50
17639;DHT22;8938;53.546;9.954;2023-04-03T05:09:33;6.10;99.50
17639;DHT22;8938;53.546;9.954;2023-04-03T05:11:58;6.20;99.50
17639;DHT22;8938;53.546;9.954;2023-04-03T05:14:24;6.10;99.40
17639;DHT22;8938;53.546;9.954;2023-04-03T05:16:50;6.20;99.50
17639;DHT22;8938;53.546;9.954;2023-04-03T05:19:22;6.20;99.40
17639;DHT22;8938;53.546;9.954;2023-04-03T05:21:48;6.10;99.40
17639;DHT22;8938;53.546;9.954;2023-04-03T05:24:16;6.10;99.50
17639;DHT22;8938;53.546;9.954;2023-04-03T05:26:42;6.10;99.60
17639;DHT22;8938;53.546;9.954;2023-04-03T05:29:08;6.10;99.50
17639;DHT22;8938;53.546;9.954;2023-04-03T05:31:34;6.10;99.50
17639;DHT22;8938;53.546;9.954;2023-04-03T05:33:59;6.10;99.60
17639;DHT22;8938;53.546;9.954;2023-04-03T05:36:25;6.10;99.60
17639;DHT22;8938;53.546;9.954;2023-04-03T05:38:51;6.10;99.70
17639;DHT22;8938;53.546;9.954;2023-04-03T05:41:17;6.10;99.70
17639;DHT22;8938;53.546;9.954;2023-04-03T05:43:43;6.10;99.70
17639;DHT22;8938;53.546;9.954;2023-04-03T05:46:14;6.10;99.80
17639;DHT22;8938;53.546;9.954;2023-04-03T05:48:40;6.00;99.80
17639;DHT22;8938;53.546;9.954;2023-04-03T05:51:07;6.00;99.90
17639;DHT22;8938;53.546;9.954;2023-04-03T05:53:35;6.00;99.90
17639;DHT22;8938;53.546;9.954;2023-04-03T05:56:03;6.00;99.90
17639;DHT22;8938;53.546;9.954;2023-04-03T05:58:28;6.00;99.90
17639;DHT22;8938;53.546;9.954;2023-04-03T06:00:54;6.00;99.90
17639;DHT22;8938;53.546;9.954;2023-04-03T06:03:19;6.00;99.90
17639;DHT22;8938;53.546;9.954;2023-04-03T06:05:45;6.10;99.90
17639;DHT22;8938;53.546;9.954;2023-04-03T06:08:11;6.10;99.90
17639;DHT22;8938;53.546;9.954;2023-04-03T06:10:38;6.10;99.90
17639;DHT22;8938;53.546;9.954;2023-04-03T06:13:03;6.20;99.90
17639;DHT22;8938;53.546;9.954;2023-04-03T06:15:29;6.20;99.90
17639;DHT22;8938;53.546;9.954;2023-04-03T06:17:55;6.30;99.90
17639;DHT22;8938;53.546;9.954;2023-04-03T06:20:20;6.40;99.90
17639;DHT22;8938;53.546;9.954;2023-04-03T06:22:47;6.40;99.90
17639;DHT22;8938;53.546;9.954;2023-04-03T06:25:13;6.40;99.90
17639;DHT22;8938;53.546;9.954;2023-04-03T06:27:38;6.40;99.90
17639;DHT22;8938;53.546;9.954;2023-04-03T06:30:06;6.50;99.90
17639;DHT22;8938;53.546;9.954;2023-04-03T06:32:32;6.50;99.80
17639;DHT22;8938;53.546;9.954;2023-04-03T06:34:57;6.60;99.80
17639;DHT22;8938;53.546;9.954;2023-04-03T06:37:24;6.70;99.80
17639;DHT22;8938;53.546;9.954;2023-04-03T06:39:54;6.80;99.80
17639;DHT22;8938;53.546;9.954;2023-04-03T06:42:20;6.90;99.80
17639;DHT22;8938;53.546;9.954;2023-04-03T06:44:46;7.00;99.60
17639;DHT22;8938;53.546;9.954;2023-04-03T06:47:16;7.10;99.70
17639;DHT22;8938;53.546;9.954;2023-04-03T06:49:42;7.10;99.50
17639;DHT22;8938;53.546;9.954;2023-04-03T06:52:08;7.20;99.50
17639;DHT22;8938;53.546;9.954;2023-04-03T06:54:34;7.20;99.30
17639;DHT22;8938;53.546;9.954;2023-04-03T06:57:00;7.30;99.50
17639;DHT22;8938;53.546;9.954;2023-04-03T06:59:25;7.40;99.40
17639;DHT22;8938;53.546;9.954;2023-04-03T07:01:51;7.50;99.30
17639;DHT22;8938;53.546;9.954;2023-04-03T07:04:17;7.50;99.10
17639;DHT22;8938;53.546;9.954;2023-04-03T07:06:43;7.70;99.20
17639;DHT22;8938;53.546;9.954;2023-04-03T07:09:09;7.70;99.30
17639;DHT22;8938;53.546;9.954;2023-04-03T07:11:36;7.80;99.00
17639;DHT22;8938;53.546;9.954;2023-04-03T07:14:02;7.70;98.40
17639;DHT22;8938;53.546;9.954;2023-04-03T07:16:28;7.90;98.70
17639;DHT22;8938;53.546;9.954;2023-04-03T07:18:56;8.10;98.80
17639;DHT22;8938;53.546;9.954;2023-04-03T07:21:22;8.30;98.40
17639;DHT22;8938;53.546;9.954;2023-04-03T07:23:48;8.30;98.20
17639;DHT22;8938;53.546;9.954;2023-04-03T07:26:13;8.20;98.10
17639;DHT22;8938;53.546;9.954;2023-04-03T07:28:39;8.20;97.90
17639;DHT22;8938;53.546;9.954;2023-04-03T07:31:08;8.20;97.70
17639;DHT22;8938;53.546;9.954;2023-04-03T07:33:36;8.30;97.70
17639;DHT22;8938;53.546;9.954;2023-04-03T07:36:04;8.40;97.60
17639;DHT22;8938;53.546;9.954;2023-04-03T07:38:29;8.40;97.50
17639;DHT22;8938;53.546;9.954;2023-04-03T07:40:55;8.60;97.40
17639;DHT22;8938;53.546;9.954;2023-04-03T07:43:21;8.60;97.30
17639;DHT22;8938;53.546;9.954;2023-04-03T07:45:48;8.70;97.30
17639;DHT22;8938;53.546;9.954;2023-04-03T07:48:17;8.70;97.10
17639;DHT22;8938;53.546;9.954;2023-04-03T07:50:43;8.70;97.10
17639;DHT22;8938;53.546;9.954;2023-04-03T07:53:09;8.60;97.20
17639;DHT22;8938;53.546;9.954;2023-04-03T07:55:35;8.50;97.20
17639;DHT22;8938;53.546;9.954;2023-04-03T07:58:08;8.70;97.40
17639;DHT22;8938;53.546;9.954;2023-04-03T08:00:35;8.70;97.30
17639;DHT22;8938;53.546;9.954;2023-04-03T08:03:00;8.80;97.20
17639;DHT22;8938;53.546;9.954;2023-04-03T08:05:26;8.70;96.80
17639;DHT22;8938;53.546;9.954;2023-04-03T08:07:52;8.90;96.90
17639;DHT22;8938;53.546;9.954;2023-04-03T08:10:17;9.00;96.90
17639;DHT22;8938;53.546;9.954;2023-04-03T08:12:46;9.20;96.80
17639;DHT22;8938;53.546;9.954;2023-04-03T08:15:12;9.30;96.70
17639;DHT22;8938;53.546;9.954;2023-04-03T08:17:37;9.30;96.20
17639;DHT22;8938;53.546;9.954;2023-04-03T08:20:04;9.40;95.90
17639;DHT22;8938;53.546;9.954;2023-04-03T08:22:35;9.40;95.50
17639;DHT22;8938;53.546;9.954;2023-04-03T08:25:01;9.30;95.20
17639;DHT22;8938;53.546;9.954;2023-04-03T08:27:27;9.50;95.10
17639;DHT22;8938;53.546;9.954;2023-04-03T08:29:54;9.40;94.70
17639;DHT22;8938;53.546;9.954;2023-04-03T08:32:19;9.50;94.50
17639;DHT22;8938;53.546;9.954;2023-04-03T08:34:45;9.60;94.50
17639;DHT22;8938;53.546;9.954;2023-04-03T08:37:11;9.70;94.30
17639;DHT22;8938;53.546;9.954;2023-04-03T08:39:36;9.70;94.10
17639;DHT22;8938;53.546;9.954;2023-04-03T08:42:07;9.90;94.20
17639;DHT22;8938;53.546;9.954;2023-04-03T08:50:07;9.90;93.00
17639;DHT22;8938;53.546;9.954;2023-04-03T08:55:11;10.00;92.90
17639;DHT22;8938;53.546;9.954;2023-04-03T08:57:44;10.10;92.90
17639;DHT22;8938;53.546;9.954;2023-04-03T09:02:50;10.30;93.00
17639;DHT22;8938;53.546;9.954;2023-04-03T09:05:19;10.30;92.70
17639;DHT22;8938;53.546;9.954;2023-04-03T09:10:27;10.20;91.70
17639;DHT22;8938;53.546;9.954;2023-04-03T09:13:05;10.20;91.80
17639;DHT22;8938;53.546;9.954;2023-04-03T09:15:33;10.20;92.10
17639;DHT22;8938;53.546;9.954;2023-04-03T09:18:04;10.20;92.00
17639;DHT22;8938;53.546;9.954;2023-04-03T09:20:44;10.20;91.80
17639;DHT22;8938;53.546;9.954;2023-04-03T09:23:28;10.30;91.40
17639;DHT22;8938;53.546;9.954;2023-04-03T09:26:05;10.20;90.60
17639;DHT22;8938;53.546;9.954;2023-04-03T09:28:37;10.50;91.20
17639;DHT22;8938;53.546;9.954;2023-04-03T09:33:39;10.80;90.50
17639;DHT22;8938;53.546;9.954;2023-04-03T09:36:05;10.90;89.90
17639;DHT22;8938;53.546;9.954;2023-04-03T09:38:31;10.90;89.80
17639;DHT22;8938;53.546;9.954;2023-04-03T09:41:10;10.90;89.70
17639;DHT22;8938;53.546;9.954;2023-04-03T09:43:38;11.20;90.00
17639;DHT22;8938;53.546;9.954;2023-04-03T09:46:31;12.90;90.30
17639;DHT22;8938;53.546;9.954;2023-04-03T09:48:59;15.50;87.20
17639;DHT22;8938;53.546;9.954;2023-04-03T09:51:26;17.90;81.50
17639;DHT22;8938;53.546;9.954;2023-04-03T09:53:53;19.50;72.80
17639;DHT22;8938;53.546;9.954;2023-04-03T09:58:50;19.00;70.00
17639;DHT22;8938;53.546;9.954;2023-04-03T10:04:13;17.00;71.30
17639;DHT22;8938;53.546;9.954;2023-04-03T10:06:41;15.80;71.70
17639;DHT22;8938;53.546;9.954;2023-04-03T10:09:27;16.40;72.00
17639;DHT22;8938;53.546;9.954;2023-04-03T10:14:27;19.20;70.70
17639;DHT22;8938;53.546;9.954;2023-04-03T10:19:43;20.80;64.90
17639;DHT22;8938;53.546;9.954;2023-04-03T10:38:19;19.20;59.60
17639;DHT22;8938;53.546;9.954;2023-04-03T10:43:54;18.20;61.60
17639;DHT22;8938;53.546;9.954;2023-04-03T10:51:37;16.90;62.40
17639;DHT22;8938;53.546;9.954;2023-04-03T10:54:24;16.60;61.50
17639;DHT22;8938;53.546;9.954;2023-04-03T10:57:03;16.20;62.30
17639;DHT22;8938;53.546;9.954;2023-04-03T11:02:22;14.70;64.60
17639;DHT22;8938;53.546;9.954;2023-04-03T11:04:53;14.30;65.50
17639;DHT22;8938;53.546;9.954;2023-04-03T11:07:23;13.60;65.40
17639;DHT22;8938;53.546;9.954;2023-04-03T11:09:57;13.10;66.40
17639;DHT22;8938;53.546;9.954;2023-04-03T11:12:48;12.80;67.20
17639;DHT22;8938;53.546;9.954;2023-04-03T11:15:19;12.20;67.50
17639;DHT22;8938;53.546;9.954;2023-04-03T11:21:12;12.10;69.50
17639;DHT22;8938;53.546;9.954;2023-04-03T11:23:40;11.90;69.90
17639;DHT22;8938;53.546;9.954;2023-04-03T11:26:27;11.90;70.30
17639;DHT22;8938;53.546;9.954;2023-04-03T11:29:04;11.80;71.00
17639;DHT22;8938;53.546;9.954;2023-04-03T11:32:06;11.90;71.40
17639;DHT22;8938;53.546;9.954;2023-04-03T11:37:10;12.00;72.60
17639;DHT22;8938;53.546;9.954;2023-04-03T11:39:38;12.20;72.50
17639;DHT22;8938;53.546;9.954;2023-04-03T11:42:37;12.20;72.00
17639;DHT22;8938;53.546;9.954;2023-04-03T11:50:47;12.60;72.60
17639;DHT22;8938;53.546;9.954;2023-04-03T11:58:28;12.20;73.00
17639;DHT22;8938;53.546;9.954;2023-04-03T12:00:57;12.10;73.40
17639;DHT22;8938;53.546;9.954;2023-04-03T12:05:48;11.90;74.20
17639;DHT22;8938;53.546;9.954;2023-04-03T12:37:48;13.30;72.40
17639;DHT22;8938;53.546;9.954;2023-04-03T12:40:51;13.30;71.90
17639;DHT22;8938;53.546;9.954;2023-04-03T12:51:05;12.80;71.20
17639;DHT22;8938;53.546;9.954;2023-04-03T12:54:01;12.80;71.90
17639;DHT22;8938;53.546;9.954;2023-04-03T12:56:32;13.20;71.60
17639;DHT22;8938;53.546;9.954;2023-04-03T12:59:18;13.30;69.80
17639;DHT22;8938;53.546;9.954;2023-04-03T13:01:44;13.20;70.90
17639;DHT22;8938;53.546;9.954;2023-04-03T13:04:17;13.60;71.30
17639;DHT22;8938;53.546;9.954;2023-04-03T13:06:44;13.60;70.40
17639;DHT22;8938;53.546;9.954;2023-04-03T13:09:25;13.60;70.00
17639;DHT22;8938;53.546;9.954;2023-04-03T13:12:13;13.80;70.40
17639;DHT22;8938;53.546;9.954;2023-04-03T13:14:49;13.70;70.10
17639;DHT22;8938;53.546;9.954;2023-04-03T13:17:16;13.60;70.40
17639;DHT22;8938;53.546;9.954;2023-04-03T13:19:44;13.00;69.60
17639;DHT22;8938;53.546;9.954;2023-04-03T13:22:33;12.80;70.40
17639;DHT22;8938;53.546;9.954;2023-04-03T13:25:06;12.70;70.70
17639;DHT22;8938;53.546;9.954;2023-04-03T13:27:32;12.80;70.60
17639;DHT22;8938;53.546;9.954;2023-04-03T13:30:01;12.90;71.50
17639;DHT22;8938;53.546;9.954;2023-04-03T13:32:29;13.30;72.20
17639;DHT22;8938;53.546;9.954;2023-04-03T13:34:56;13.30;69.60
17639;DHT22;8938;53.546;9.954;2023-04-03T13:37:31;13.10;69.50
17639;DHT22;8938;53.546;9.954;2023-04-03T13:42:34;12.80;71.90
17639;DHT22;8938;53.546;9.954;2023-04-03T13:45:30;13.00;71.00
17639;DHT22;8938;53.546;9.954;2023-04-03T13:48:10;13.00;69.70
17639;DHT22;8938;53.546;9.954;2023-04-03T13:50:58;13.10;70.90
17639;DHT22;8938;53.546;9.954;2023-04-03T13:53:26;13.10;70.40
17639;DHT22;8938;53.546;9.954;2023-04-03T13:56:00;13.70;70.50
17639;DHT22;8938;53.546;9.954;2023-04-03T13:58:31;14.10;68.00
17639;DHT22;8938;53.546;9.954;2023-04-03T14:03:32;13.70;68.20
17639;DHT22;8938;53.546;9.954;2023-04-03T14:05:59;13.40;67.30
17639;DHT22;8938;53.546;9.954;2023-04-03T14:08:27;13.10;67.50
17639;DHT22;8938;53.546;9.954;2023-04-03T14:10:53;12.90;67.60
17639;DHT22;8938;53.546;9.954;2023-04-03T14:13:19;12.80;67.90
17639;DHT22;8938;53.546;9.954;2023-04-03T14:15:46;12.70;68.70
17639;DHT22;8938;53.546;9.954;2023-04-03T14:18:15;12.80;68.30
17639;DHT22;8938;53.546;9.954;2023-04-03T14:20:41;12.90;69.40
17639;DHT22;8938;53.546;9.954;2023-04-03T14:23:06;12.70;67.10
17639;DHT22;8938;53.546;9.954;2023-04-03T14:25:32;12.70;67.80
17639;DHT22;8938;53.546;9.954;2023-04-03T14:27:58;12.70;67.80
17639;DHT22;8938;53.546;9.954;2023-04-03T14:30:33;12.80;68.00
17639;DHT22;8938;53.546;9.954;2023-04-03T14:32:59;12.90;68.40
17639;DHT22;8938;53.546;9.954;2023-04-03T14:35:25;12.80;67.30
17639;DHT22;8938;53.546;9.954;2023-04-03T14:37:52;12.80;67.30
17639;DHT22;8938;53.546;9.954;2023-04-03T14:40:24;12.80;67.80
17639;DHT22;8938;53.546;9.954;2023-04-03T14:42:51;12.80;67.30
17639;DHT22;8938;53.546;9.954;2023-04-03T14:45:23;12.70;67.70
17639;DHT22;8938;53.546;9.954;2023-04-03T14:47:51;12.30;67.80
17639;DHT22;8938;53.546;9.954;2023-04-03T14:50:20;12.40;69.20
17639;DHT22;8938;53.546;9.954;2023-04-03T14:52:46;12.50;69.80
17639;DHT22;8938;53.546;9.954;2023-04-03T14:55:15;12.50;69.00
17639;DHT22;8938;53.546;9.954;2023-04-03T14:57:41;12.50;69.20
17639;DHT22;8938;53.546;9.954;2023-04-03T15:00:12;12.60;69.40
17639;DHT22;8938;53.546;9.954;2023-04-03T15:02:39;12.70;70.10
17639;DHT22;8938;53.546;9.954;2023-04-03T15:05:07;12.70;69.30
17639;DHT22;8938;53.546;9.954;2023-04-03T15:07:36;12.50;70.20
17639;DHT22;8938;53.546;9.954;2023-04-03T15:10:14;12.50;69.90
17639;DHT22;8938;53.546;9.954;2023-04-03T15:12:41;12.60;70.40
17639;DHT22;8938;53.546;9.954;2023-04-03T15:15:07;12.60;70.30
17639;DHT22;8938;53.546;9.954;2023-04-03T15:17:34;12.70;70.70
17639;DHT22;8938;53.546;9.954;2023-04-03T15:20:00;12.70;69.30
17639;DHT22;8938;53.546;9.954;2023-04-03T15:22:26;12.60;69.60
17639;DHT22;8938;53.546;9.954;2023-04-03T15:24:52;12.50;69.90
17639;DHT22;8938;53.546;9.954;2023-04-03T15:27:18;12.40;70.10
17639;DHT22;8938;53.546;9.954;2023-04-03T15:29:44;12.00;69.90
17639;DHT22;8938;53.546;9.954;2023-04-03T15:32:11;12.10;70.80
17639;DHT22;8938;53.546;9.954;2023-04-03T15:34:37;11.90;70.80
17639;DHT22;8938;53.546;9.954;2023-04-03T15:37:02;11.80;71.70
17639;DHT22;8938;53.546;9.954;2023-04-03T15:39:28;11.70;71.60
17639;DHT22;8938;53.546;9.954;2023-04-03T15:41:54;11.60;72.90
17639;DHT22;8938;53.546;9.954;2023-04-03T15:44:20;11.50;72.80
17639;DHT22;8938;53.546;9.954;2023-04-03T15:46:47;11.40;73.30
17639;DHT22;8938;53.546;9.954;2023-04-03T15:49:14;11.20;74.00
17639;DHT22;8938;53.546;9.954;2023-04-03T15:51:40;11.20;74.60
17639;DHT22;8938;53.546;9.954;2023-04-03T15:54:06;11.30;75.20
17639;DHT22;8938;53.546;9.954;2023-04-03T15:56:31;11.20;75.00
17639;DHT22;8938;53.546;9.954;2023-04-03T15:58:57;11.40;75.30
17639;DHT22;8938;53.546;9.954;2023-04-03T16:01:22;11.50;75.40
17639;DHT22;8938;53.546;9.954;2023-04-03T16:03:48;11.30;74.50
17639;DHT22;8938;53.546;9.954;2023-04-03T16:06:15;11.50;74.70
17639;DHT22;8938;53.546;9.954;2023-04-03T16:08:42;11.30;74.60
17639;DHT22;8938;53.546;9.954;2023-04-03T16:11:08;11.20;74.60
17639;DHT22;8938;53.546;9.954;2023-04-03T16:13:34;11.20;75.30
17639;DHT22;8938;53.546;9.954;2023-04-03T16:16:00;11.30;75.60
17639;DHT22;8938;53.546;9.954;2023-04-03T16:18:27;11.40;75.50
17639;DHT22;8938;53.546;9.954;2023-04-03T16:20:53;11.40;75.80
17639;DHT22;8938;53.546;9.954;2023-04-03T16:23:19;11.40;75.70
17639;DHT22;8938;53.546;9.954;2023-04-03T16:25:44;11.40;75.70
17639;DHT22;8938;53.546;9.954;2023-04-03T16:28:15;11.40;75.80
17639;DHT22;8938;53.546;9.954;2023-04-03T16:30:41;11.40;76.00
17639;DHT22;8938;53.546;9.954;2023-04-03T16:33:08;11.30;76.30
17639;DHT22;8938;53.546;9.954;2023-04-03T16:35:34;11.20;76.50
17639;DHT22;8938;53.546;9.954;2023-04-03T16:38:00;11.20;76.60
17639;DHT22;8938;53.546;9.954;2023-04-03T16:40:25;11.10;76.70
17639;DHT22;8938;53.546;9.954;2023-04-03T16:42:51;11.10;76.90
17639;DHT22;8938;53.546;9.954;2023-04-03T16:45:17;11.20;76.90
17639;DHT22;8938;53.546;9.954;2023-04-03T16:47:42;11.10;76.70
17639;DHT22;8938;53.546;9.954;2023-04-03T16:50:08;11.10;76.90
17639;DHT22;8938;53.546;9.954;2023-04-03T16:52:34;11.10;76.90
17639;DHT22;8938;53.546;9.954;2023-04-03T16:54:59;11.00;76.90
17639;DHT22;8938;53.546;9.954;2023-04-03T16:57:25;10.90;77.00
17639;DHT22;8938;53.546;9.954;2023-04-03T16:59:53;10.90;77.20
17639;DHT22;8938;53.546;9.954;2023-04-03T17:02:20;10.90;77.50
17639;DHT22;8938;53.546;9.954;2023-04-03T17:04:45;10.80;77.50
17639;DHT22;8938;53.546;9.954;2023-04-03T17:07:11;10.80;77.90
17639;DHT22;8938;53.546;9.954;2023-04-03T17:09:36;10.80;78.10
17639;DHT22;8938;53.546;9.954;2023-04-03T17:12:03;10.90;78.20
17639;DHT22;8938;53.546;9.954;2023-04-03T17:14:29;10.80;78.20
17639;DHT22;8938;53.546;9.954;2023-04-03T17:16:54;10.70;78.70
17639;DHT22;8938;53.546;9.954;2023-04-03T17:19:20;10.60;79.00
17639;DHT22;8938;53.546;9.954;2023-04-03T17:21:46;10.70;79.40
17639;DHT22;8938;53.546;9.954;2023-04-03T17:24:13;10.70;79.60
17639;DHT22;8938;53.546;9.954;2023-04-03T17:26:41;10.60;79.70
17639;DHT22;8938;53.546;9.954;2023-04-03T17:29:07;10.60;80.00
17639;DHT22;8938;53.546;9.954;2023-04-03T17:31:32;10.50;80.20
17639;DHT22;8938;53.546;9.954;2023-04-03T17:33:58;10.30;80.40
17639;DHT22;8938;53.546;9.954;2023-04-03T17:36:27;10.10;80.80
17639;DHT22;8938;53.546;9.954;2023-04-03T17:38:53;10.10;81.10
17639;DHT22;8938;53.546;9.954;2023-04-03T17:41:19;9.80;81.20
17639;DHT22;8938;53.546;9.954;2023-04-03T17:43:45;9.80;81.60
17639;DHT22;8938;53.546;9.954;2023-04-03T17:46:10;9.80;81.80
17639;DHT22;8938;53.546;9.954;2023-04-03T17:48:38;9.90;81.80
17639;DHT22;8938;53.546;9.954;2023-04-03T17:51:11;9.90;81.70
17639;DHT22;8938;53.546;9.954;2023-04-03T17:53:37;9.70;81.30
17639;DHT22;8938;53.546;9.954;2023-04-03T17:56:07;9.70;81.40
17639;DHT22;8938;53.546;9.954;2023-04-03T17:58:33;9.70;81.10
17639;DHT22;8938;53.546;9.954;2023-04-03T18:00:58;9.80;80.90
17639;DHT22;8938;53.546;9.954;2023-04-03T18:03:24;9.60;80.10
17639;DHT22;8938;53.546;9.954;2023-04-03T18:05:49;9.40;79.80